Terminal Aerodrome Forecast
Issued by NWS Wichita, KS

Home | Current Version | Previous Version | Graphics & Text | Print | Product List | Glossary On
Versions: 1 2 3 4 5 6 7 8 9 10 11 12 13 14 15 16 17
000
FTUS43 KICT 180400 AAA
TAFICT
TAF AMD
KICT 180414Z 1804/1824 14006KT P6SM SKC
      TEMPO 1805/1806 34025G38KT
     FM181500 18009KT P6SM SCT250
     FM181900 21013KT P6SM SCT250=

USA.gov is the U.S. government's official web portal to all federal, state and local government web resources and services.